createdAt,value
2018-11-25T00:00:06.480Z,25.42
2018-11-25T00:01:06.482Z,25.47
2018-11-25T00:02:06.436Z,25.50
2018-11-25T00:03:06.388Z,25.51
2018-11-25T00:04:06.393Z,25.47
2018-11-25T00:05:06.395Z,25.47
2018-11-25T00:06:06.398Z,25.50
2018-11-25T00:07:06.402Z,25.50
2018-11-25T00:08:06.404Z,25.43
2018-11-25T00:09:06.456Z,25.42
2018-11-25T00:10:06.413Z,25.46
2018-11-25T00:11:06.415Z,25.50
2018-11-25T00:12:06.417Z,25.51
2018-11-25T00:13:06.469Z,25.45
2018-11-25T00:14:06.421Z,25.46
2018-11-25T00:15:06.424Z,25.50
2018-11-25T00:16:06.436Z,25.51
2018-11-25T00:17:06.438Z,25.47
2018-11-25T00:18:06.439Z,25.43
2018-11-25T00:19:06.538Z,25.43
2018-11-25T00:20:06.440Z,25.52
2018-11-25T00:21:06.542Z,25.45
2018-11-25T00:22:06.448Z,25.35
2018-11-25T00:23:06.448Z,25.52
2018-11-25T00:24:06.453Z,25.40
2018-11-25T00:25:06.455Z,25.36
2018-11-25T00:26:06.458Z,25.43
2018-11-25T00:27:06.463Z,25.35
2018-11-25T00:28:06.464Z,25.40
2018-11-25T00:29:06.466Z,25.39
2018-11-25T00:30:06.469Z,25.38
2018-11-25T00:31:09.693Z,25.38
2018-11-25T00:32:06.476Z,25.33
2018-11-25T00:33:06.480Z,25.36
2018-11-25T00:34:06.483Z,25.33
2018-11-25T00:35:06.484Z,25.43
2018-11-25T00:36:06.489Z,25.32
2018-11-25T00:37:06.542Z,25.39
2018-11-25T00:38:06.493Z,25.42
2018-11-25T00:39:06.499Z,25.30
2018-11-25T00:40:06.502Z,25.40
2018-11-25T00:41:06.503Z,25.39
2018-11-25T00:42:06.509Z,25.33
2018-11-25T00:43:06.508Z,25.32
2018-11-25T00:44:06.521Z,25.35
2018-11-25T00:45:06.569Z,25.35
2018-11-25T00:46:06.518Z,25.21
2018-11-25T00:47:06.521Z,25.35
2018-11-25T00:48:06.523Z,25.36
2018-11-25T00:49:06.525Z,25.24
2018-11-25T00:50:06.531Z,25.18
2018-11-25T00:51:06.533Z,25.21
2018-11-25T00:52:06.536Z,25.25
2018-11-25T00:53:06.538Z,25.24
2018-11-25T00:54:06.541Z,25.30
2018-11-25T00:55:06.550Z,25.27
2018-11-25T00:56:06.550Z,25.28
2018-11-25T00:57:06.549Z,25.28
2018-11-25T00:58:06.553Z,25.35
2018-11-25T00:59:06.556Z,25.25
2018-11-25T01:00:06.559Z,25.28
2018-11-25T01:01:06.563Z,25.25
2018-11-25T01:02:06.565Z,25.24
2018-11-25T01:03:06.619Z,25.25
2018-11-25T01:04:06.573Z,25.21
2018-11-25T01:05:06.575Z,25.25
2018-11-25T01:06:06.591Z,25.28
2018-11-25T01:07:06.581Z,25.27
2018-11-25T01:08:06.580Z,25.28
2018-11-25T01:09:06.589Z,25.21
2018-11-25T01:10:06.588Z,25.23
2018-11-25T01:11:06.593Z,25.21
2018-11-25T01:12:06.594Z,25.25
2018-11-25T01:13:06.597Z,25.23
2018-11-25T01:14:06.600Z,25.20
2018-11-25T01:15:06.603Z,25.18
2018-11-25T01:16:06.606Z,25.23
2018-11-25T01:17:06.608Z,25.25
2018-11-25T01:18:06.612Z,25.24
2018-11-25T01:19:06.615Z,25.21
2018-11-25T01:20:06.616Z,25.23
2018-11-25T01:21:06.619Z,25.24
2018-11-25T01:22:06.627Z,25.21
2018-11-25T01:23:06.627Z,25.25
2018-11-25T01:24:06.636Z,25.20
2018-11-25T01:25:06.632Z,25.21
2018-11-25T01:26:06.634Z,25.25
2018-11-25T01:27:06.639Z,25.28
2018-11-25T01:28:06.645Z,25.23
2018-11-25T01:29:06.644Z,25.21
2018-11-25T01:30:06.646Z,25.23
2018-11-25T01:31:06.651Z,25.18
2018-11-25T01:32:06.704Z,25.25
2018-11-25T01:33:06.658Z,25.23
2018-11-25T01:34:06.660Z,25.20
2018-11-25T01:35:06.664Z,25.17
2018-11-25T01:36:06.668Z,25.20
2018-11-25T01:37:06.666Z,25.18
2018-11-25T01:38:06.669Z,25.17
2018-11-25T01:39:06.673Z,25.23
2018-11-25T01:40:06.676Z,25.20
2018-11-25T01:41:06.686Z,25.20
2018-11-25T01:42:06.683Z,25.20
2018-11-25T01:43:06.686Z,25.20
2018-11-25T01:44:06.689Z,25.23
2018-11-25T01:45:06.691Z,25.21
2018-11-25T01:46:06.692Z,25.20
2018-11-25T01:47:06.695Z,25.20
2018-11-25T01:48:06.699Z,25.17
2018-11-25T01:49:06.701Z,25.14
2018-11-25T01:50:06.708Z,25.18
2018-11-25T01:51:06.710Z,25.17
2018-11-25T01:52:06.861Z,25.18
2018-11-25T01:53:06.713Z,25.17
2018-11-25T01:54:06.717Z,25.23
2018-11-25T01:55:06.719Z,25.17
2018-11-25T01:56:06.722Z,25.14
2018-11-25T01:57:06.724Z,25.17
2018-11-25T01:58:06.726Z,25.17
2018-11-25T01:59:06.731Z,25.14
2018-11-25T02:00:06.740Z,25.17
2018-11-25T02:01:06.841Z,25.20
2018-11-25T02:02:06.790Z,25.14
2018-11-25T02:03:06.747Z,25.17
2018-11-25T02:04:06.747Z,25.23
2018-11-25T02:05:06.749Z,25.20
2018-11-25T02:06:06.751Z,25.14
2018-11-25T02:07:06.754Z,25.20
2018-11-25T02:08:06.758Z,25.13
2018-11-25T02:09:06.759Z,25.23
2018-11-25T02:10:06.762Z,25.14
2018-11-25T02:11:06.773Z,25.20
2018-11-25T02:12:06.769Z,25.20
2018-11-25T02:13:06.776Z,25.21
2018-11-25T02:14:06.825Z,25.15
2018-11-25T02:15:06.879Z,25.13
2018-11-25T02:16:06.880Z,25.18
2018-11-25T02:17:06.781Z,25.14
2018-11-25T02:18:06.787Z,25.20
2018-11-25T02:19:06.789Z,25.17
2018-11-25T02:20:06.844Z,25.24
2018-11-25T02:21:06.794Z,25.20
2018-11-25T02:22:06.947Z,25.20
2018-11-25T02:23:06.800Z,25.15
2018-11-25T02:24:06.803Z,25.20
2018-11-25T02:25:06.807Z,25.18
2018-11-25T02:26:06.813Z,25.23
2018-11-25T02:27:06.815Z,25.20
2018-11-25T02:28:06.921Z,25.18
2018-11-25T02:29:06.824Z,25.17
2018-11-25T02:30:06.824Z,25.20
2018-11-25T02:31:06.826Z,25.17
2018-11-25T02:32:06.829Z,25.14
2018-11-25T02:33:06.830Z,25.15
2018-11-25T02:34:06.983Z,25.18
2018-11-25T02:35:06.835Z,25.15
2018-11-25T02:36:06.839Z,25.18
2018-11-25T02:37:06.890Z,25.17
2018-11-25T02:38:06.843Z,25.18
2018-11-25T02:39:06.856Z,25.14
2018-11-25T02:40:07.006Z,25.18
2018-11-25T02:41:06.857Z,25.18
2018-11-25T02:42:06.910Z,25.18
2018-11-25T02:43:06.859Z,25.17
2018-11-25T02:44:06.864Z,25.15
2018-11-25T02:45:06.865Z,25.15
2018-11-25T02:46:06.867Z,25.17
2018-11-25T02:47:06.870Z,25.15
2018-11-25T02:48:06.872Z,25.13
2018-11-25T02:49:06.875Z,25.18
2018-11-25T02:50:07.028Z,25.10
2018-11-25T02:51:06.882Z,25.14
2018-11-25T02:52:06.893Z,25.14
2018-11-25T02:53:06.890Z,25.13
2018-11-25T02:54:06.890Z,25.17
2018-11-25T02:55:06.893Z,25.13
2018-11-25T02:56:06.895Z,25.15
2018-11-25T02:57:06.899Z,25.21
2018-11-25T02:58:06.901Z,25.14
2018-11-25T02:59:06.904Z,25.17
2018-11-25T03:00:06.906Z,25.20
2018-11-25T03:01:06.914Z,25.21
2018-11-25T03:02:07.066Z,25.14
2018-11-25T03:03:06.918Z,25.17
2018-11-25T03:04:06.919Z,25.17
2018-11-25T03:05:06.924Z,25.20
2018-11-25T03:06:06.925Z,25.20
2018-11-25T03:07:06.927Z,25.15
2018-11-25T03:08:06.930Z,25.17
2018-11-25T03:09:06.932Z,25.14
2018-11-25T03:10:06.936Z,25.13
2018-11-25T03:11:06.940Z,25.13
2018-11-25T03:12:06.942Z,25.21
2018-11-25T03:13:06.944Z,25.15
2018-11-25T03:14:07.048Z,25.15
2018-11-25T03:15:06.950Z,25.09
2018-11-25T03:16:06.954Z,25.10
2018-11-25T03:17:06.955Z,25.17
2018-11-25T03:18:07.160Z,25.15
2018-11-25T03:19:06.961Z,25.14
2018-11-25T03:20:07.115Z,25.15
2018-11-25T03:21:06.967Z,25.15
2018-11-25T03:22:06.971Z,25.17
2018-11-25T03:23:06.973Z,25.10
2018-11-25T03:24:06.976Z,25.08
2018-11-25T03:25:06.978Z,25.13
2018-11-25T03:26:06.986Z,25.10
2018-11-25T03:27:06.985Z,25.17
2018-11-25T03:28:06.992Z,25.14
2018-11-25T03:29:06.991Z,25.10
2018-11-25T03:30:06.994Z,25.09
2018-11-25T03:31:06.997Z,25.15
2018-11-25T03:32:07.000Z,25.10
2018-11-25T03:33:07.001Z,25.15
2018-11-25T03:34:07.005Z,25.14
2018-11-25T03:35:07.007Z,25.17
2018-11-25T03:36:07.010Z,25.18
2018-11-25T03:37:07.012Z,25.14
2018-11-25T03:38:07.016Z,25.09
2018-11-25T03:39:07.019Z,25.14
2018-11-25T03:40:07.022Z,25.08
2018-11-25T03:41:07.124Z,25.17
2018-11-25T03:42:07.127Z,25.08
2018-11-25T03:43:07.031Z,25.09
2018-11-25T03:44:07.033Z,25.18
2018-11-25T03:45:07.035Z,25.14
2018-11-25T03:46:07.041Z,25.13
2018-11-25T03:47:07.043Z,25.13
2018-11-25T03:48:07.045Z,25.14
2018-11-25T03:49:07.049Z,25.10
2018-11-25T03:50:07.150Z,25.14
2018-11-25T03:51:07.053Z,25.10
2018-11-25T03:52:07.057Z,25.09
2018-11-25T03:53:07.058Z,25.13
2018-11-25T03:54:07.062Z,25.13
2018-11-25T03:55:07.064Z,25.18
2018-11-25T03:56:07.068Z,25.14
2018-11-25T03:57:07.076Z,25.15
2018-11-25T03:58:07.073Z,25.08
2018-11-25T03:59:07.076Z,25.13
2018-11-25T04:00:07.080Z,25.10
2018-11-25T04:01:07.081Z,25.09
2018-11-25T04:02:07.087Z,25.13
2018-11-25T04:03:07.088Z,25.09
2018-11-25T04:04:07.191Z,25.13
2018-11-25T04:05:07.093Z,25.13
2018-11-25T04:06:07.095Z,25.15
2018-11-25T04:07:07.099Z,25.08
2018-11-25T04:08:07.102Z,25.14
2018-11-25T04:09:07.104Z,25.20
2018-11-25T04:10:07.107Z,25.14
2018-11-25T04:11:07.111Z,25.17
2018-11-25T04:12:07.114Z,25.14
2018-11-25T04:13:07.117Z,25.09
2018-11-25T04:14:07.119Z,25.10
2018-11-25T04:15:07.122Z,25.15
2018-11-25T04:16:07.125Z,25.17
2018-11-25T04:17:07.133Z,25.10
2018-11-25T04:18:07.130Z,25.13
2018-11-25T04:19:07.133Z,25.13
2018-11-25T04:20:07.137Z,25.10
2018-11-25T04:21:07.138Z,25.09
2018-11-25T04:22:07.142Z,25.14
2018-11-25T04:23:07.145Z,25.18
2018-11-25T04:24:07.151Z,25.09
2018-11-25T04:25:07.150Z,25.09
2018-11-25T04:26:07.153Z,25.10
2018-11-25T04:27:07.156Z,25.14
2018-11-25T04:28:07.160Z,25.13
2018-11-25T04:29:07.160Z,25.15
2018-11-25T04:30:07.164Z,25.13
2018-11-25T04:31:07.170Z,25.06
2018-11-25T04:32:07.172Z,25.13
2018-11-25T04:33:07.174Z,25.13
2018-11-25T04:34:07.272Z,25.17
2018-11-25T04:35:07.179Z,25.18
2018-11-25T04:36:07.182Z,25.20
2018-11-25T04:37:07.187Z,25.14
2018-11-25T04:38:07.188Z,25.15
2018-11-25T04:39:07.195Z,25.15
2018-11-25T04:40:07.193Z,25.09
2018-11-25T04:41:07.195Z,25.13
2018-11-25T04:42:07.197Z,25.13
2018-11-25T04:43:07.207Z,25.08
2018-11-25T04:44:07.206Z,25.09
2018-11-25T04:45:07.208Z,25.14
2018-11-25T04:46:07.210Z,25.10
2018-11-25T04:47:07.314Z,25.08
2018-11-25T04:48:07.217Z,25.08
2018-11-25T04:49:07.219Z,25.17
2018-11-25T04:50:07.372Z,25.09
2018-11-25T04:51:07.376Z,25.10
2018-11-25T04:52:07.239Z,25.13
2018-11-25T04:53:07.231Z,25.14
2018-11-25T04:54:07.233Z,25.08
2018-11-25T04:55:07.237Z,25.10
2018-11-25T04:56:07.239Z,25.00
2018-11-25T04:57:07.241Z,25.14
2018-11-25T04:58:07.244Z,25.10
2018-11-25T04:59:07.248Z,25.13
2018-11-25T05:00:07.253Z,25.10
2018-11-25T05:01:07.353Z,25.08
2018-11-25T05:02:07.258Z,25.14
2018-11-25T05:03:07.409Z,25.10
2018-11-25T05:04:07.262Z,25.10
2018-11-25T05:05:07.265Z,25.13
2018-11-25T05:06:07.268Z,25.13
2018-11-25T05:07:07.270Z,25.08
2018-11-25T05:08:07.322Z,25.06
2018-11-25T05:09:07.276Z,25.03
2018-11-25T05:10:07.280Z,25.06
2018-11-25T05:11:07.280Z,25.05
2018-11-25T05:12:07.435Z,25.13
2018-11-25T05:13:07.339Z,25.03
2018-11-25T05:14:07.290Z,25.10
2018-11-25T05:15:07.295Z,25.18
2018-11-25T05:16:07.301Z,25.09
2018-11-25T05:17:07.298Z,25.05
2018-11-25T05:18:07.301Z,25.10
2018-11-25T05:19:07.405Z,25.09
2018-11-25T05:20:07.308Z,25.06
2018-11-25T05:21:07.310Z,25.15
2018-11-25T05:22:07.313Z,25.17
2018-11-25T05:23:07.315Z,25.08
2018-11-25T05:24:07.319Z,25.14
2018-11-25T05:25:07.324Z,25.14
2018-11-25T05:26:07.330Z,25.15
2018-11-25T05:27:07.392Z,25.14
2018-11-25T05:28:07.340Z,25.10
2018-11-25T05:29:07.335Z,25.13
2018-11-25T05:30:07.335Z,25.15
2018-11-25T05:31:07.342Z,25.14
2018-11-25T05:32:07.345Z,25.17
2018-11-25T05:33:07.345Z,25.08
2018-11-25T05:34:07.348Z,25.13
2018-11-25T05:35:07.351Z,25.10
2018-11-25T05:36:07.354Z,25.03
2018-11-25T05:37:07.360Z,25.09
2018-11-25T05:38:07.358Z,25.15
2018-11-25T05:39:07.399Z,25.13
2018-11-25T05:40:07.364Z,25.14
2018-11-25T05:41:07.379Z,25.09
2018-11-25T05:42:07.370Z,25.05
2018-11-25T05:43:07.372Z,25.15
2018-11-25T05:44:07.377Z,25.06
2018-11-25T05:45:07.378Z,25.15
2018-11-25T05:46:07.384Z,25.03
2018-11-25T05:47:07.484Z,25.10
2018-11-25T05:48:07.541Z,25.00
2018-11-25T05:49:07.390Z,25.06
2018-11-25T05:50:07.545Z,25.08
2018-11-25T05:51:07.446Z,25.09
2018-11-25T05:52:07.398Z,25.03
2018-11-25T05:53:07.402Z,25.05
2018-11-25T05:54:07.408Z,25.17
2018-11-25T05:55:07.407Z,25.02
2018-11-25T05:56:07.410Z,25.08
2018-11-25T05:57:07.413Z,25.09
2018-11-25T05:58:07.420Z,25.10
2018-11-25T05:59:07.419Z,25.09
2018-11-25T06:00:07.422Z,25.06
2018-11-25T06:01:07.425Z,25.02
2018-11-25T06:02:07.429Z,25.09
2018-11-25T06:03:07.432Z,25.06
2018-11-25T06:04:07.583Z,25.02
2018-11-25T06:05:07.434Z,25.09
2018-11-25T06:06:07.438Z,25.05
2018-11-25T06:07:07.441Z,25.05
2018-11-25T06:08:07.444Z,24.98
2018-11-25T06:09:07.451Z,25.20
2018-11-25T06:10:07.449Z,25.14
2018-11-25T06:11:07.457Z,25.06
2018-11-25T06:12:07.456Z,25.06
2018-11-25T06:13:07.468Z,25.13
2018-11-25T06:14:07.466Z,24.99
2018-11-25T06:15:07.465Z,25.14
2018-11-25T06:16:07.470Z,25.06
2018-11-25T06:17:07.472Z,25.14
2018-11-25T06:18:07.472Z,25.13
2018-11-25T06:19:07.475Z,25.00
2018-11-25T06:20:07.528Z,25.05
2018-11-25T06:21:07.493Z,25.13
2018-11-25T06:22:07.486Z,25.02
2018-11-25T06:23:07.487Z,25.06
2018-11-25T06:24:07.641Z,25.17
2018-11-25T06:25:07.492Z,24.99
2018-11-25T06:26:07.496Z,25.08
2018-11-25T06:27:07.499Z,24.99
2018-11-25T06:28:07.501Z,25.00
2018-11-25T06:29:07.504Z,25.03
2018-11-25T06:30:07.558Z,25.00
2018-11-25T06:31:07.508Z,25.10
2018-11-25T06:32:07.512Z,25.13
2018-11-25T06:33:07.519Z,25.13
2018-11-25T06:34:07.520Z,25.08
2018-11-25T06:35:07.522Z,25.13
2018-11-25T06:36:07.525Z,24.99
2018-11-25T06:37:07.528Z,25.10
2018-11-25T06:38:07.529Z,25.10
2018-11-25T06:39:07.533Z,25.10
2018-11-25T06:40:07.538Z,25.00
2018-11-25T06:41:07.538Z,25.03
2018-11-25T06:42:07.543Z,25.05
2018-11-25T06:43:07.544Z,25.03
2018-11-25T06:44:07.597Z,25.05
2018-11-25T06:45:07.549Z,25.10
2018-11-25T06:46:07.578Z,25.05
2018-11-25T06:47:07.607Z,25.06
2018-11-25T06:48:07.558Z,25.05
2018-11-25T06:49:07.560Z,25.13
2018-11-25T06:50:07.568Z,25.02
2018-11-25T06:51:07.571Z,25.15
2018-11-25T06:52:07.577Z,25.08
2018-11-25T06:53:07.574Z,25.09
2018-11-25T06:54:07.575Z,25.03
2018-11-25T06:55:07.577Z,25.08
2018-11-25T06:56:07.580Z,25.02
2018-11-25T06:57:07.590Z,25.10
2018-11-25T06:58:07.586Z,25.08
2018-11-25T06:59:07.591Z,25.05
2018-11-25T07:00:07.593Z,25.08
2018-11-25T07:01:07.594Z,25.10
2018-11-25T07:02:07.651Z,25.06
2018-11-25T07:03:07.599Z,25.05
2018-11-25T07:04:07.608Z,25.03
2018-11-25T07:05:07.606Z,25.10
2018-11-25T07:06:07.611Z,25.08
2018-11-25T07:07:07.620Z,25.02
2018-11-25T07:08:07.615Z,25.05
2018-11-25T07:09:07.617Z,25.02
2018-11-25T07:10:07.629Z,25.13
2018-11-25T07:11:07.624Z,25.17
2018-11-25T07:12:07.626Z,25.00
2018-11-25T07:13:07.629Z,25.03
2018-11-25T07:14:07.633Z,25.05
2018-11-25T07:15:07.635Z,25.05
2018-11-25T07:16:07.640Z,25.05
2018-11-25T07:17:07.644Z,25.09
2018-11-25T07:18:07.648Z,25.14
2018-11-25T07:19:07.648Z,25.15
2018-11-25T07:20:07.649Z,25.10
2018-11-25T07:21:07.651Z,25.17
2018-11-25T07:22:07.655Z,25.14
2018-11-25T07:23:07.658Z,25.14
2018-11-25T07:24:07.660Z,25.17
2018-11-25T07:25:07.664Z,25.20
2018-11-25T07:26:07.667Z,25.17
2018-11-25T07:27:07.669Z,25.23
2018-11-25T07:28:18.038Z,25.20
2018-11-25T07:29:07.674Z,25.18
2018-11-25T07:30:07.923Z,25.20
2018-11-25T07:31:07.681Z,25.18
2018-11-25T07:32:07.685Z,25.20
2018-11-25T07:33:07.687Z,25.20
2018-11-25T07:34:07.690Z,25.20
2018-11-25T07:35:07.694Z,25.21
2018-11-25T07:36:07.696Z,25.20
2018-11-25T07:37:07.701Z,25.20
2018-11-25T07:38:07.705Z,25.20
2018-11-25T07:39:07.705Z,25.24
2018-11-25T07:40:07.707Z,25.21
2018-11-25T07:41:07.712Z,25.23
2018-11-25T07:42:07.713Z,25.24
2018-11-25T07:43:07.722Z,25.24
2018-11-25T07:44:07.719Z,25.20
2018-11-25T07:45:07.729Z,25.27
2018-11-25T07:46:07.724Z,25.28
2018-11-25T07:47:07.728Z,25.24
2018-11-25T07:48:07.730Z,25.21
2018-11-25T07:49:07.733Z,25.35
2018-11-25T07:50:07.747Z,25.25
2018-11-25T07:51:07.738Z,25.23
2018-11-25T07:52:07.745Z,25.20
2018-11-25T07:53:07.743Z,25.20
2018-11-25T07:54:07.749Z,25.20
2018-11-25T07:55:07.750Z,25.30
2018-11-25T07:56:07.753Z,25.27
2018-11-25T07:57:07.757Z,25.21
2018-11-25T07:58:07.759Z,25.30
2018-11-25T07:59:07.762Z,25.23
2018-11-25T08:00:07.816Z,25.18
2018-11-25T08:01:07.868Z,25.32
2018-11-25T08:02:07.820Z,25.27
2018-11-25T08:03:07.875Z,25.33
2018-11-25T08:04:07.777Z,25.32
2018-11-25T08:05:07.779Z,25.35
2018-11-25T08:06:07.784Z,25.35
2018-11-25T08:07:07.785Z,25.33
2018-11-25T08:08:07.788Z,25.27
2018-11-25T08:09:07.892Z,25.25
2018-11-25T08:10:07.798Z,25.28
2018-11-25T08:11:07.795Z,25.30
2018-11-25T08:12:07.800Z,25.35
2018-11-25T08:13:07.806Z,25.33
2018-11-25T08:14:07.805Z,25.38
2018-11-25T08:15:07.810Z,25.40
2018-11-25T08:16:07.963Z,25.33
2018-11-25T08:17:07.813Z,25.35
2018-11-25T08:18:07.817Z,25.32
2018-11-25T08:19:07.823Z,25.33
2018-11-25T08:20:07.827Z,25.38
2018-11-25T08:21:07.828Z,25.39
2018-11-25T08:22:07.828Z,25.36
2018-11-25T08:23:07.832Z,25.36
2018-11-25T08:24:07.986Z,25.38
2018-11-25T08:25:07.837Z,25.32
2018-11-25T08:26:07.846Z,25.35
2018-11-25T08:27:07.844Z,25.32
2018-11-25T08:28:07.847Z,25.36
2018-11-25T08:29:07.851Z,25.39
2018-11-25T08:30:07.853Z,25.38
2018-11-25T08:31:07.854Z,25.43
2018-11-25T08:32:07.859Z,25.35
2018-11-25T08:33:07.865Z,25.39
2018-11-25T08:34:07.866Z,25.36
2018-11-25T08:35:07.868Z,25.36
2018-11-25T08:36:07.871Z,25.35
2018-11-25T08:37:07.872Z,25.35
2018-11-25T08:38:07.976Z,25.36
2018-11-25T08:39:07.880Z,25.33
2018-11-25T08:40:07.883Z,25.35
2018-11-25T08:41:07.884Z,25.35
2018-11-25T08:42:07.888Z,25.39
2018-11-25T08:43:07.904Z,25.38
2018-11-25T08:44:07.895Z,25.30
2018-11-25T08:45:07.896Z,25.42
2018-11-25T08:46:07.900Z,25.39
2018-11-25T08:47:08.004Z,25.39
2018-11-25T08:48:07.914Z,25.38
2018-11-25T08:49:07.909Z,25.33
2018-11-25T08:50:08.012Z,25.43
2018-11-25T08:51:07.916Z,25.33
2018-11-25T08:52:07.925Z,25.35
2018-11-25T08:53:07.921Z,25.39
2018-11-25T08:54:07.925Z,25.39
2018-11-25T08:55:07.928Z,25.35
2018-11-25T08:56:07.932Z,25.40
2018-11-25T08:57:07.932Z,25.33
2018-11-25T08:58:07.937Z,25.33
2018-11-25T08:59:07.938Z,25.39
2018-11-25T09:00:07.943Z,25.39
2018-11-25T09:01:07.945Z,25.42
2018-11-25T09:02:07.948Z,25.33
2018-11-25T09:03:07.959Z,25.36
2018-11-25T09:04:07.961Z,25.35
2018-11-25T09:05:07.960Z,25.40
2018-11-25T09:06:07.961Z,25.40
2018-11-25T09:07:07.974Z,25.45
2018-11-25T09:08:08.072Z,25.38
2018-11-25T09:09:08.119Z,25.42
2018-11-25T09:10:07.971Z,25.38
2018-11-25T09:11:07.996Z,25.42
2018-11-25T09:12:07.979Z,25.42
2018-11-25T09:13:08.331Z,25.40
2018-11-25T09:14:07.991Z,25.39
2018-11-25T09:15:07.992Z,25.45
2018-11-25T09:16:07.992Z,25.39
2018-11-25T09:17:07.997Z,25.40
2018-11-25T09:18:08.014Z,25.47
2018-11-25T09:19:08.004Z,25.50
2018-11-25T09:20:08.002Z,25.40
2018-11-25T09:21:08.004Z,25.45
2018-11-25T09:22:08.007Z,25.46
2018-11-25T09:23:08.011Z,25.46
2018-11-25T09:24:08.014Z,25.45
2018-11-25T09:25:08.017Z,25.45
2018-11-25T09:26:08.170Z,25.50
2018-11-25T09:27:08.030Z,25.43
2018-11-25T09:28:08.035Z,25.43
2018-11-25T09:29:08.044Z,25.46
2018-11-25T09:30:08.038Z,25.43
2018-11-25T09:31:08.040Z,25.51
2018-11-25T09:32:08.092Z,25.45
2018-11-25T09:33:08.041Z,25.50
2018-11-25T09:34:08.043Z,25.46
2018-11-25T09:35:08.049Z,25.46
2018-11-25T09:36:08.050Z,25.46
2018-11-25T09:37:08.053Z,25.46
2018-11-25T09:38:08.055Z,25.45
2018-11-25T09:39:08.059Z,25.42
2018-11-25T09:40:08.070Z,25.47
2018-11-25T09:41:08.071Z,25.46
2018-11-25T09:42:08.072Z,25.52
2018-11-25T09:43:08.072Z,25.43
2018-11-25T09:44:08.074Z,25.51
2018-11-25T09:45:08.076Z,25.50
2018-11-25T09:46:08.081Z,25.50
2018-11-25T09:47:08.099Z,25.55
2018-11-25T09:48:08.090Z,25.47
2018-11-25T09:49:08.138Z,25.51
2018-11-25T09:50:08.091Z,25.50
2018-11-25T09:51:08.095Z,25.50
2018-11-25T09:52:08.100Z,25.50
2018-11-25T09:53:08.152Z,25.58
2018-11-25T09:54:08.113Z,25.51
2018-11-25T09:55:08.111Z,25.55
2018-11-25T09:56:08.116Z,25.52
2018-11-25T09:57:08.112Z,25.46
2018-11-25T09:58:08.116Z,25.52
2018-11-25T09:59:08.123Z,25.54
2018-11-25T10:00:08.123Z,25.52
2018-11-25T10:01:08.125Z,25.52
2018-11-25T10:02:08.131Z,25.54
2018-11-25T10:03:08.137Z,25.52
2018-11-25T10:04:08.135Z,25.52
2018-11-25T10:05:08.137Z,25.51
2018-11-25T10:06:08.138Z,25.50
2018-11-25T10:07:08.143Z,25.50
2018-11-25T10:08:08.146Z,25.54
2018-11-25T10:09:08.152Z,25.51
2018-11-25T10:10:08.156Z,25.57
2018-11-25T10:11:08.156Z,25.46
2018-11-25T10:12:08.365Z,25.52
2018-11-25T10:13:08.171Z,25.55
2018-11-25T10:14:08.166Z,25.57
2018-11-25T10:15:08.167Z,25.58
2018-11-25T10:16:08.221Z,25.47
2018-11-25T10:17:08.333Z,25.60
2018-11-25T10:18:08.177Z,25.55
2018-11-25T10:19:08.179Z,25.51
2018-11-25T10:20:08.186Z,25.47
2018-11-25T10:21:08.187Z,25.58
2018-11-25T10:22:08.193Z,25.54
2018-11-25T10:23:08.190Z,25.57
2018-11-25T10:24:08.196Z,25.46
2018-11-25T10:25:08.199Z,25.50
2018-11-25T10:26:08.205Z,25.54
2018-11-25T10:27:08.205Z,25.55
2018-11-25T10:28:08.210Z,25.58
2018-11-25T10:29:08.211Z,25.50
2018-11-25T10:30:08.217Z,25.51
2018-11-25T10:31:08.215Z,25.46
2018-11-25T10:32:08.219Z,25.45
2018-11-25T10:33:08.222Z,25.47
2018-11-25T10:34:08.226Z,25.47
2018-11-25T10:35:08.232Z,25.45
2018-11-25T10:36:08.233Z,25.51
2018-11-25T10:37:08.283Z,25.50
2018-11-25T10:38:08.237Z,25.54
2018-11-25T10:39:08.242Z,25.50
2018-11-25T10:40:08.245Z,25.50
2018-11-25T10:41:08.247Z,25.46
2018-11-25T10:42:08.247Z,25.45
2018-11-25T10:43:08.253Z,25.43
2018-11-25T10:44:08.257Z,25.47
2018-11-25T10:45:08.259Z,25.50
2018-11-25T10:46:08.261Z,25.45
2018-11-25T10:47:08.266Z,25.46
2018-11-25T10:48:08.267Z,25.42
2018-11-25T10:49:08.271Z,25.36
2018-11-25T10:50:08.275Z,25.45
2018-11-25T10:51:08.278Z,25.45
2018-11-25T10:52:08.281Z,25.42
2018-11-25T10:53:08.283Z,25.35
2018-11-25T10:54:08.287Z,25.42
2018-11-25T10:55:08.293Z,25.35
2018-11-25T10:56:08.292Z,25.40
2018-11-25T10:57:08.296Z,25.38
2018-11-25T10:58:08.297Z,25.33
2018-11-25T10:59:08.303Z,25.38
2018-11-25T11:00:08.310Z,25.36
2018-11-25T11:01:08.357Z,25.43
2018-11-25T11:02:08.361Z,25.39
2018-11-25T11:03:08.314Z,25.35
2018-11-25T11:04:08.316Z,25.43
2018-11-25T11:05:08.318Z,25.40
2018-11-25T11:06:08.321Z,25.39
2018-11-25T11:07:08.535Z,25.36
2018-11-25T11:08:08.329Z,25.36
2018-11-25T11:09:08.334Z,25.35
2018-11-25T11:10:08.335Z,25.30
2018-11-25T11:11:08.338Z,25.33
2018-11-25T11:12:08.340Z,25.21
2018-11-25T11:13:08.594Z,25.20
2018-11-25T11:14:08.346Z,25.28
2018-11-25T11:15:08.399Z,25.32
2018-11-25T11:16:08.353Z,25.21
2018-11-25T11:17:08.354Z,25.20
2018-11-25T11:18:08.357Z,25.33
2018-11-25T11:19:08.360Z,25.33
2018-11-25T11:20:08.365Z,25.36
2018-11-25T11:21:08.418Z,25.28
2018-11-25T11:22:08.368Z,25.39
2018-11-25T11:23:08.376Z,25.35
2018-11-25T11:24:08.376Z,25.21
2018-11-25T11:25:08.379Z,25.17
2018-11-25T11:26:08.383Z,25.28
2018-11-25T11:27:08.385Z,25.30
2018-11-25T11:28:08.395Z,25.27
2018-11-25T11:29:08.391Z,25.35
2018-11-25T11:30:08.547Z,25.28
2018-11-25T11:31:13.303Z,25.30
2018-11-25T11:32:08.400Z,25.28
2018-11-25T11:33:08.402Z,25.25
2018-11-25T11:34:08.407Z,25.23
2018-11-25T11:35:08.410Z,25.28
2018-11-25T11:36:08.412Z,25.24
2018-11-25T11:37:08.413Z,25.23
2018-11-25T11:38:08.567Z,25.20
2018-11-25T11:39:08.420Z,25.23
2018-11-25T11:40:08.423Z,25.15
2018-11-25T11:41:08.451Z,25.21
2018-11-25T11:42:08.430Z,25.24
2018-11-25T11:43:08.433Z,25.25
2018-11-25T11:44:08.436Z,25.24
2018-11-25T11:45:08.437Z,25.24
2018-11-25T11:46:08.443Z,25.28
2018-11-25T11:47:08.446Z,25.21
2018-11-25T11:48:08.497Z,25.20
2018-11-25T11:49:08.452Z,25.20
2018-11-25T11:50:08.452Z,25.28
2018-11-25T11:51:08.519Z,25.20
2018-11-25T11:52:08.459Z,25.23
2018-11-25T11:53:08.466Z,25.10
2018-11-25T11:54:08.465Z,25.23
2018-11-25T11:55:08.471Z,25.18
2018-11-25T11:56:08.468Z,25.14
2018-11-25T11:57:08.474Z,25.18
2018-11-25T11:58:08.529Z,25.17
2018-11-25T11:59:08.479Z,25.14
2018-11-25T12:00:08.482Z,25.10
2018-11-25T12:01:08.484Z,25.18
2018-11-25T12:02:08.489Z,25.15
2018-11-25T12:03:08.593Z,25.08
2018-11-25T12:04:08.495Z,25.08
2018-11-25T12:05:08.497Z,25.13
2018-11-25T12:06:08.499Z,25.13
2018-11-25T12:07:08.502Z,25.06
2018-11-25T12:08:08.507Z,25.02
2018-11-25T12:09:08.509Z,25.05
2018-11-25T12:10:08.512Z,25.03
2018-11-25T12:11:08.675Z,25.06
2018-11-25T12:12:08.517Z,25.17
2018-11-25T12:13:08.721Z,25.02
2018-11-25T12:14:08.521Z,24.96
2018-11-25T12:15:08.525Z,25.10
2018-11-25T12:16:08.530Z,25.00
2018-11-25T12:17:08.530Z,25.17
2018-11-25T12:18:08.577Z,25.03
2018-11-25T12:19:08.545Z,25.06
2018-11-25T12:20:08.541Z,25.08
2018-11-25T12:21:08.542Z,25.10
2018-11-25T12:22:08.546Z,25.14
2018-11-25T12:23:08.549Z,25.06
2018-11-25T12:24:08.553Z,25.08
2018-11-25T12:25:08.606Z,25.14
2018-11-25T12:26:08.559Z,25.05
2018-11-25T12:27:08.563Z,25.05
2018-11-25T12:28:08.576Z,25.15
2018-11-25T12:29:08.567Z,25.08
2018-11-25T12:30:08.570Z,25.08
2018-11-25T12:31:08.628Z,25.05
2018-11-25T12:32:08.576Z,25.09
2018-11-25T12:33:08.577Z,25.13
2018-11-25T12:34:08.580Z,25.03
2018-11-25T12:35:08.585Z,25.08
2018-11-25T12:36:08.595Z,24.99
2018-11-25T12:37:08.599Z,25.05
2018-11-25T12:38:08.597Z,25.03
2018-11-25T12:39:08.596Z,25.00
2018-11-25T12:40:08.598Z,25.02
2018-11-25T12:41:08.600Z,25.14
2018-11-25T12:42:08.620Z,24.98
2018-11-25T12:43:08.608Z,25.09
2018-11-25T12:44:08.683Z,25.18
2018-11-25T12:45:08.612Z,25.02
2018-11-25T12:46:08.616Z,25.03
2018-11-25T12:47:08.618Z,25.05
2018-11-25T12:48:09.322Z,25.05
2018-11-25T12:49:08.633Z,25.02
2018-11-25T12:50:08.637Z,25.06
2018-11-25T12:51:08.637Z,25.14
2018-11-25T12:52:08.641Z,25.15